EW5956 Weather Reports


Display with metric or nautical units.
time (UTC)temp
F
wind
direction
speed
MPH
gust
MPH
rain 1hr
in
rain 24hr
in
rain mn
in
humidity
%
barometer
mb
20181114182032 61 16 7.0 15.0 0.00 0.00 0.00 41 1024.7
20181114181532 61 29 9.0 12.0 0.00 0.00 0.00 41 1024.5
20181114181033 61 13 9.0 14.0 0.00 0.00 0.00 41 1025.0
20181114180532 61 39 7.0 15.0 0.00 0.00 0.00 41 1024.7
20181114180032 61 16 7.0 14.0 0.00 0.00 0.00 41 1024.7
20181114175532 61 30 7.0 14.0 0.00 0.00 0.00 40 1024.9
20181114175032 61 11 5.0 12.0 0.00 0.00 0.00 40 1024.8
20181114174532 61 358 7.0 15.0 0.00 0.00 0.00 40 1024.3
20181114174032 61 28 8.0 13.0 0.00 0.00 0.00 40 1024.6
20181114173534 62 37 6.0 13.0 0.00 0.00 0.00 39 1024.5
20181114173032 62 32 10.0 16.0 0.00 0.00 0.00 39 1024.3
20181114172531 62 22 5.0 15.0 0.00 0.00 0.00 39 1024.6
20181114172031 62 26 10.0 15.0 0.00 0.00 0.00 39 1024.7
20181114171532 62 13 9.0 15.0 0.00 0.00 0.00 39 1024.4
20181114171032 62 1 10.0 13.0 0.00 0.00 0.00 39 1024.2
20181114170531 62 21 6.0 12.0 0.00 0.00 0.00 39 1024.8
20181114170031 63 19 13.0 20.0 0.00 0.00 0.00 37 1024.6
20181114165532 63 27 5.0 12.0 0.00 0.00 0.00 39 1024.4
20181114165031 63 5 4.0 12.0 0.00 0.00 0.00 39 1024.9
20181114164532 63 2 10.0 16.0 0.00 0.00 0.00 37 1024.8
20181114164032 64 29 6.0 13.0 0.00 0.00 0.00 37 1024.3
20181114163532 63 8 5.0 8.0 0.00 0.00 0.00 37 1024.3
20181114163032 64 13 5.0 9.0 0.00 0.00 0.00 37 1024.7
20181114162531 64 356 8.0 14.0 0.00 0.00 0.00 36 1024.5
20181114162033 65 2 8.0 14.0 0.00 0.00 0.00 36 1024.4
20181114161531 65 349 6.0 12.0 0.00 0.00 0.00 36 1024.6
20181114161031 65 5 6.0 10.0 0.00 0.00 0.00 36 1024.2
20181114160531 65 3 9.0 14.0 0.00 0.00 0.00 36 1024.8
20181114160032 65 341 6.0 9.0 0.00 0.00 0.00 36 1024.2
20181114155532 66 344 7.0 10.0 0.00 0.00 0.00 36 1024.5
20181114155031 66 332 6.0 14.0 0.00 0.00 0.00 36 1024.0
20181114154531 66 350 5.0 10.0 0.00 0.00 0.00 36 1024.4
20181114154031 66 345 6.0 10.0 0.00 0.00 0.00 35 1024.0
20181114153532 66 340 6.0 9.0 0.00 0.00 0.00 35 1024.0
20181114153031 67 338 4.0 9.0 0.00 0.00 0.00 35 1024.2
20181114152534 67 4 4.0 7.0 0.00 0.00 0.00 35 1024.0
20181114152031 67 23 2.0 7.0 0.00 0.00 0.00 34 1024.1
20181114151531 67 327 2.0 6.0 0.00 0.00 0.00 34 1023.8
20181114151031 68 334 4.0 7.0 0.00 0.00 0.00 33 1024.2
20181114150534 69 10 1.0 3.0 0.00 0.00 0.00 32 1023.9
20181114145531 69 7 3.0 8.0 0.00 0.00 0.00 32 1024.0
20181114145031 70 356 6.0 8.0 0.00 0.00 0.00 32 1023.9
20181114144531 70 248 0.0 0.0 0.00 0.00 0.00 36 1024.1
20181114144031 71 249 0.0 1.0 0.00 0.00 0.00 36 1023.9
20181114143533 70 300 0.0 1.0 0.00 0.00 0.00 36 1023.8
20181114143030 70 239 1.0 5.0 0.00 0.00 0.00 36 1023.8
20181114142530 70 224 2.0 6.0 0.00 0.00 0.00 36 1024.2
20181114142031 69 242 4.0 6.0 0.00 0.00 0.00 36 1023.8
20181114141530 70 245 5.0 8.0 0.00 0.00 0.00 36 1023.9
20181114141030 70 228 4.0 8.0 0.00 0.00 0.00 34 1024.2
20181114140532 70 218 5.0 8.0 0.00 0.00 0.00 36 1024.4
20181114140031 71 246 5.0 7.0 0.00 0.00 0.00 36 1024.0
20181114135530 71 231 3.0 8.0 0.00 0.00 0.00 35 1023.9
20181114135031 70 246 6.0 10.0 0.00 0.00 0.00 35 1024.1
20181114134530 70 249 4.0 7.0 0.00 0.00 0.00 33 1024.5
20181114134033 71 202 2.0 7.0 0.00 0.00 0.00 32 1024.5
20181114133530 71 207 3.0 6.0 0.00 0.00 0.00 33 1024.5
20181114133031 71 230 3.0 6.0 0.00 0.00 0.00 32 1024.5
20181114132531 71 239 4.0 6.0 0.00 0.00 0.00 33 1024.7
20181114132031 71 241 5.0 6.0 0.00 0.00 0.00 34 1024.6
20181114131532 71 241 3.0 6.0 0.00 0.00 0.00 33 1024.2
20181114131032 72 252 2.0 3.0 0.00 0.00 0.00 32 1024.2
20181114130532 71 238 2.0 5.0 0.00 0.00 0.00 31 1024.4
20181114130033 71 260 3.0 5.0 0.00 0.00 0.00 31 1024.4
20181114125532 71 260 2.0 5.0 0.00 0.00 0.00 31 1024.3
20181114125036 70 240 4.0 6.0 0.00 0.00 0.00 32 1024.4
20181114124533 71 248 1.0 6.0 0.00 0.00 0.00 32 1024.5
20181114124033 70 244 3.0 6.0 0.00 0.00 0.00 33 1024.5
20181114123533 70 240 2.0 5.0 0.00 0.00 0.00 33 1024.7
20181114123034 70 240 5.0 6.0 0.00 0.00 0.00 32 1024.9
20181114122534 71 236 3.0 6.0 0.00 0.00 0.00 33 1025.0
20181114122035 70 245 4.0 6.0 0.00 0.00 0.00 34 1024.7
20181114121535 70 238 3.0 6.0 0.00 0.00 0.00 33 1025.1
20181114121034 70 282 5.0 7.0 0.00 0.00 0.00 34 1025.2
20181114120537 70 247 3.0 7.0 0.00 0.00 0.00 34 1025.3
20181114120036 69 248 6.0 7.0 0.00 0.00 0.00 34 1025.1
20181114115535 70 231 3.0 5.0 0.00 0.00 0.00 32 1025.1
20181114115036 70 237 3.0 5.0 0.00 0.00 0.00 32 1025.3
20181114114537 70 230 3.0 3.0 0.00 0.00 0.00 33 1025.7
20181114114037 69 238 3.0 5.0 0.00 0.00 0.00 32 1025.6
20181114113536 71 226 2.0 3.0 0.00 0.00 0.00 32 1025.6
20181114113037 70 252 1.0 5.0 0.00 0.00 0.00 32 1025.6
20181114112537 69 236 2.0 5.0 0.00 0.00 0.00 32 1025.7
20181114112037 71 222 2.0 5.0 0.00 0.00 0.00 32 1026.0
20181114111537 69 215 2.0 5.0 0.00 0.00 0.00 32 1025.7
20181114111038 69 217 2.0 3.0 0.00 0.00 0.00 31 1025.9
20181114110537 69 219 3.0 5.0 0.00 0.00 0.00 33 1026.0
20181114110039 70 214 1.0 3.0 0.00 0.00 0.00 32 1026.0
20181114105539 70 223 2.0 6.0 0.00 0.00 0.00 33 1026.2
20181114105039 70 244 1.0 6.0 0.00 0.00 0.00 33 1026.3
20181114104538 70 212 1.0 3.0 0.00 0.00 0.00 33 1026.0
20181114104039 70 239 0.0 2.0 0.00 0.00 0.00 33 1026.0
20181114103538 70 291 0.0 1.0 0.00 0.00 0.00 33 1026.5
20181114103039 71 7 1.0 5.0 0.00 0.00 0.00 34 1026.1
20181114102540 70 308 1.0 5.0 0.00 0.00 0.00 35 1026.4
20181114102040 69 290 1.0 3.0 0.00 0.00 0.00 35 1026.6
20181114101540 69 335 1.0 6.0 0.00 0.00 0.00 36 1026.6
20181114101041 69 333 1.0 6.0 0.00 0.00 0.00 34 1026.7
20181114100543 69 344 1.0 3.0 0.00 0.00 0.00 36 1026.8
20181114100041 69 337 0.0 2.0 0.00 0.00 0.00 37 1026.5
20181114095542 68 341 1.0 2.0 0.00 0.00 0.00 36 1027.0
20181114095041 69 355 1.0 5.0 0.00 0.00 0.00 37 1026.8
20181114094541 69 336 0.0 2.0 0.00 0.00 0.00 36 1026.8
20181114094042 68 31 3.0 6.0 0.00 0.00 0.00 38 1027.2
20181114093543 66 345 0.0 3.0 0.00 0.00 0.00 41 1027.3
20181114093042 66 335 2.0 6.0 0.00 0.00 0.00 42 1027.0
20181114092543 66 9 3.0 7.0 0.00 0.00 0.00 43 1027.0
20181114092043 66 9 5.0 7.0 0.00 0.00 0.00 43 1027.0
20181114091544 65 0 1.0 6.0 0.00 0.00 0.00 43 1027.2
20181114091044 65 355 3.0 7.0 0.00 0.00 0.00 46 1027.4
20181114090547 64 14 4.0 7.0 0.00 0.00 0.00 48 1027.7
20181114090045 64 20 4.0 8.0 0.00 0.00 0.00 47 1027.5
20181114085544 64 13 3.0 8.0 0.00 0.00 0.00 46 1027.5
20181114085044 64 10 2.0 7.0 0.00 0.00 0.00 46 1027.4
20181114084545 68 7 0.0 3.0 0.00 0.00 0.00 45 1027.4
20181114084045 65 61 1.0 5.0 0.00 0.00 0.00 46 1027.4
20181114083544 64 3 0.0 3.0 0.00 0.00 0.00 48 1027.3
20181114083046 63 321 0.0 1.0 0.00 0.00 0.00 52 1027.4
20181114082546 66 338 2.0 6.0 0.00 0.00 0.00 49 1027.3
20181114082045 63 302 1.0 2.0 0.00 0.00 0.00 51 1027.3
20181114081546 63 33 0.0 0.0 0.00 0.00 0.00 55 1027.3
20181114081048 60 137 0.0 1.0 0.00 0.00 0.00 59 1027.0
20181114080549 59 137 0.0 0.0 0.00 0.00 0.00 59 1027.2
20181114080047 58 137 0.0 0.0 0.00 0.00 0.00 66 1027.5
20181114075547 56 137 0.0 0.0 0.00 0.00 0.00 66 1027.2
20181114075047 65 137 0.0 0.0 0.00 0.00 0.00 62 1027.8
20181114074548 62 137 0.0 0.0 0.00 0.00 0.00 61 1027.6
20181114074048 64 137 0.0 0.0 0.00 0.00 0.00 70 1027.3
20181114073550 59 137 0.0 0.0 0.00 0.00 0.00 75 1027.6
20181114073047 55 137 0.0 0.0 0.00 0.00 0.00 73 1027.4
20181114072549 55 137 0.0 0.0 0.00 0.00 0.00 75 1027.8
20181114072048 54 136 0.0 1.0 0.00 0.00 0.00 75 1027.4
20181114071549 53 136 0.0 1.0 0.00 0.00 0.00 74 1027.6
20181114071049 55 284 0.0 0.0 0.00 0.00 0.00 72 1027.6
20181114070549 56 284 0.0 0.0 0.00 0.00 0.00 78 1027.6
20181114070050 55 286 0.0 0.0 0.00 0.00 0.00 78 1027.6
20181114065550 53 287 0.0 0.0 0.00 0.00 0.00 81 1027.5
20181114065050 51 288 0.0 0.0 0.00 0.00 0.00 85 1027.4
20181114064551 52 293 0.0 0.0 0.00 0.00 0.00 84 1027.4
20181114064051 53 303 0.0 0.0 0.00 0.00 0.00 90 1027.4
20181114063551 50 302 0.0 1.0 0.00 0.00 0.00 92 1027.4
20181114063051 51 294 0.0 0.0 0.00 0.00 0.00 96 1027.3
20181114062551 49 293 1.0 3.0 0.00 0.00 0.00 97 1027.0
20181114062053 49 326 0.0 0.0 0.00 0.00 0.00 98 1027.6
20181114061553 49 326 0.0 0.0 0.00 0.00 0.00 98 1027.5
20181114061053 48 326 0.0 0.0 0.00 0.00 0.00 98 1026.8
20181114060554 48 326 0.0 0.0 0.00 0.00 0.00 98 1027.1
20181114060053 48 326 0.0 0.0 0.00 0.00 0.00 98 1027.1
20181114055554 49 327 0.0 0.0 0.00 0.00 0.00 98 1026.9
20181114055054 49 123 0.0 0.0 0.00 0.00 0.00 98 1027.3
20181114054554 50 123 0.0 0.0 0.00 0.00 0.00 98 1026.9
20181114054054 49 123 0.0 1.0 0.00 0.00 0.00 98 1027.2
20181114053555 49 123 0.0 2.0 0.00 0.00 0.00 98 1027.5
20181114053056 49 98 0.0 0.0 0.00 0.00 0.00 98 1027.1
20181114052556 48 95 0.0 0.0 0.00 0.00 0.00 98 1027.2
20181114052056 49 38 0.0 0.0 0.00 0.00 0.00 98 1027.1
20181114051556 49 38 0.0 0.0 0.00 0.00 0.00 98 1027.2
20181114051056 50 38 0.0 0.0 0.00 0.00 0.00 98 1027.3
20181114050557 50 38 0.0 0.0 0.00 0.00 0.00 98 1026.9
20181114050058 49 38 0.0 0.0 0.00 0.00 0.00 98 1027.3
20181114045556 50 38 0.0 0.0 0.00 0.00 0.00 98 1026.9
20181114045057 49 38 0.0 0.0 0.00 0.00 0.00 98 1027.3
20181114044557 49 38 0.0 0.0 0.00 0.00 0.00 98 1027.2
20181114044058 49 38 0.0 0.0 0.00 0.00 0.00 98 1027.2
20181114043558 49 38 0.0 0.0 0.00 0.00 0.00 98 1027.4
20181114043101 49 38 0.0 0.0 0.00 0.00 0.00 98 1027.2
20181114042559 49 38 0.0 0.0 0.00 0.00 0.00 98 1027.2
20181114042059 49 38 0.0 0.0 0.00 0.00 0.00 98 1026.7
20181114041558 49 38 0.0 0.0 0.00 0.00 0.00 98 1027.2
20181114041059 50 38 0.0 0.0 0.00 0.00 0.00 98 1027.1
20181114040559 50 38 0.0 0.0 0.00 0.00 0.00 98 1027.3
20181114040100 51 38 0.0 0.0 0.00 0.00 0.00 98 1026.8
20181114035559 49 38 0.0 0.0 0.00 0.00 0.00 98 1027.2
20181114035100 49 38 0.0 0.0 0.00 0.00 0.00 98 1027.4
20181114034600 50 38 0.0 0.0 0.00 0.00 0.00 98 1027.1
20181114034101 50 38 0.0 0.0 0.00 0.00 0.00 98 1027.1
20181114033601 50 84 0.0 0.0 0.00 0.00 0.00 98 1026.8
20181114033100 51 87 0.0 1.0 0.00 0.00 0.00 98 1027.2
20181114032601 51 88 1.0 2.0 0.00 0.00 0.00 98 1026.7
20181114032102 50 82 0.0 2.0 0.00 0.00 0.00 98 1026.6
20181114031602 50 83 0.0 2.0 0.00 0.00 0.00 98 1027.3
20181114031102 50 125 1.0 3.0 0.00 0.00 0.00 98 1026.8
20181114030603 50 191 0.0 1.0 0.00 0.00 0.00 98 1027.4
20181114030103 50 207 0.0 0.0 0.00 0.00 0.00 98 1027.2
20181114025603 50 207 0.0 0.0 0.00 0.00 0.00 98 1027.3
20181114025103 51 207 0.0 0.0 0.00 0.00 0.00 98 1027.0
20181114024604 51 207 0.0 0.0 0.00 0.00 0.00 98 1027.4
20181114024104 51 207 0.0 0.0 0.00 0.00 0.00 98 1027.2
20181114023604 51 207 0.0 0.0 0.00 0.00 0.00 98 1027.4
20181114023106 51 207 0.0 0.0 0.00 0.00 0.00 98 1027.4
20181114022607 51 207 0.0 0.0 0.00 0.00 0.00 98 1027.0
20181114022106 51 207 0.0 0.0 0.00 0.00 0.00 98 1027.4
20181114021604 51 207 0.0 0.0 0.00 0.00 0.00 98 1027.2
20181114021105 51 207 0.0 0.0 0.00 0.00 0.00 98 1027.4
20181114020607 51 207 0.0 0.0 0.00 0.00 0.00 98 1027.2
20181114020106 51 207 0.0 0.0 0.00 0.00 0.00 98 1027.4
20181114015606 50 207 0.0 0.0 0.00 0.00 0.00 98 1027.4
20181114015106 50 207 0.0 0.0 0.00 0.00 0.00 98 1027.8
20181114014606 51 207 0.0 0.0 0.00 0.00 0.00 98 1027.1
20181114014106 51 207 0.0 0.0 0.00 0.00 0.00 98 1027.7
20181114013606 52 207 0.0 0.0 0.00 0.00 0.00 98 1027.5
20181114013108 52 351 0.0 0.0 0.00 0.00 0.00 98 1027.8
20181114012607 52 351 0.0 0.0 0.00 0.00 0.00 98 1027.2
20181114012108 52 351 0.0 0.0 0.00 0.00 0.00 98 1027.4
20181114011608 51 351 0.0 0.0 0.00 0.00 0.00 98 1027.8
20181114011108 52 351 0.0 0.0 0.00 0.00 0.00 98 1027.5
20181114010608 53 351 0.0 0.0 0.00 0.00 0.00 98 1027.8
20181114010109 52 351 0.0 0.0 0.00 0.00 0.00 98 1027.5
20181114005610 53 351 0.0 0.0 0.00 0.00 0.00 97 1027.5
20181114005108 52 309 0.0 0.0 0.00 0.00 0.00 96 1027.9
20181114004608 52 281 0.0 0.0 0.00 0.00 0.00 94 1027.6
20181114004109 53 281 0.0 2.0 0.00 0.00 0.00 95 1027.7
20181114003611 53 279 0.0 2.0 0.00 0.00 0.00 94 1027.8
20181114003109 53 268 1.0 3.0 0.00 0.00 0.00 95 1027.4
20181114002609 54 294 0.0 0.0 0.00 0.00 0.00 95 1027.6
20181114002109 54 294 0.0 2.0 0.00 0.00 0.00 94 1027.9
20181114001609 54 306 1.0 2.0 0.00 0.00 0.00 95 1027.3
20181114001110 54 306 2.0 5.0 0.00 0.00 0.00 95 1027.6
20181114000613 54 291 3.0 7.0 0.00 0.00 0.00 96 1028.0
20181114000139 54 296 3.0 5.0 0.00 0.00 0.00 96 1027.7
20181113235638 54 272 1.0 7.0 0.00 0.00 0.00 96 1027.4
20181113235138 54 280 0.0 2.0 0.00 0.00 0.00 98 1028.2
20181113234639 53 237 0.0 0.0 0.00 0.00 0.00 98 1027.7
20181113234138 53 237 0.0 0.0 0.00 0.00 0.00 98 1028.0
20181113233640 54 237 0.0 0.0 0.00 0.00 0.00 98 1027.7
20181113233139 53 237 0.0 0.0 0.00 0.00 0.00 98 1027.9
20181113232138 53 237 0.0 0.0 0.00 0.00 0.00 96 1027.6
20181113231638 53 237 0.0 0.0 0.00 0.00 0.00 96 1028.1
20181113231138 53 237 0.0 0.0 0.00 0.00 0.00 96 1027.7
20181113230638 53 237 0.0 1.0 0.00 0.00 0.00 95 1028.0
20181113230137 54 284 0.0 0.0 0.00 0.00 0.00 94 1027.9
20181113225637 53 284 0.0 0.0 0.00 0.00 0.00 93 1027.6
20181113225137 54 284 0.0 0.0 0.00 0.00 0.00 93 1027.8
20181113224638 54 284 1.0 3.0 0.00 0.00 0.00 93 1028.1
20181113224138 54 302 1.0 2.0 0.00 0.00 0.00 93 1027.5
20181113223637 54 299 1.0 3.0 0.00 0.00 0.00 92 1027.7
20181113223137 55 290 1.0 3.0 0.00 0.00 0.00 93 1027.7
20181113222637 55 302 2.0 3.0 0.00 0.00 0.00 93 1027.8
20181113221137 56 295 3.0 6.0 0.00 0.00 0.00 90 1027.9
20181113220639 56 283 1.0 3.0 0.00 0.00 0.00 90 1027.9
20181113220138 56 311 1.0 2.0 0.00 0.00 0.00 90 1027.6
20181113215638 56 323 1.0 5.0 0.00 0.00 0.00 89 1027.8
20181113215137 56 326 2.0 5.0 0.00 0.00 0.00 90 1028.3
20181113214637 57 350 1.0 3.0 0.00 0.00 0.00 92 1028.1
20181113214137 56 279 0.0 0.0 0.00 0.00 0.00 91 1028.1
20181113213637 56 279 0.0 1.0 0.00 0.00 0.00 90 1027.5
20181113213137 56 278 1.0 3.0 0.00 0.00 0.00 90 1027.6
20181113212637 56 295 1.0 3.0 0.00 0.00 0.00 88 1027.5
20181113212137 57 296 1.0 2.0 0.00 0.00 0.00 88 1027.5
20181113211637 57 305 2.0 5.0 0.00 0.00 0.00 86 1027.5
20181113211136 57 302 1.0 5.0 0.00 0.00 0.00 86 1027.8
20181113210637 58 343 1.0 7.0 0.00 0.00 0.00 84 1027.8
20181113210138 58 354 3.0 7.0 0.00 0.00 0.00 84 1027.8
20181113205637 58 1 6.0 9.0 0.00 0.00 0.00 84 1027.7
20181113205137 58 21 3.0 7.0 0.00 0.00 0.00 84 1027.5
20181113204637 57 10 3.0 6.0 0.00 0.00 0.00 86 1027.4
20181113204137 58 328 4.0 8.0 0.00 0.00 0.00 86 1027.5
20181113203637 58 343 3.0 7.0 0.00 0.00 0.00 86 1027.6
20181113203137 58 343 3.0 6.0 0.00 0.00 0.00 87 1027.6
20181113202640 57 308 1.0 3.0 0.00 0.00 0.00 86 1028.2
20181113202137 58 312 2.0 5.0 0.00 0.00 0.00 87 1028.0
20181113201637 57 307 1.0 5.0 0.00 0.00 0.00 89 1028.0
20181113201137 56 309 3.0 5.0 0.00 0.00 0.00 88 1028.1
20181113200636 56 301 2.0 5.0 0.00 0.00 0.00 87 1027.6
20181113200137 57 285 1.0 5.0 0.00 0.00 0.00 84 1027.6
20181113195636 58 351 1.0 6.0 0.00 0.00 0.00 83 1027.4
20181113195136 58 351 1.0 3.0 0.00 0.00 0.00 84 1027.7
20181113194637 58 271 0.0 5.0 0.00 0.00 0.00 85 1027.6
20181113194136 58 333 1.0 6.0 0.00 0.00 0.00 85 1027.6
20181113193638 58 352 1.0 6.0 0.00 0.00 0.00 87 1027.4
20181113193136 57 290 1.0 2.0 0.00 0.00 0.00 86 1027.5
20181113192636 58 289 0.0 1.0 0.00 0.00 0.00 86 1027.4
20181113192136 58 289 1.0 3.0 0.00 0.00 0.00 86 1027.3
20181113191636 58 307 1.0 3.0 0.00 0.00 0.00 86 1027.3
20181113191136 58 296 2.0 3.0 0.00 0.00 0.00 86 1027.3
20181113190636 58 280 2.0 3.0 0.00 0.00 0.00 86 1027.3
20181113190137 58 292 1.0 5.0 0.00 0.00 0.00 86 1027.2
20181113185636 58 292 3.0 5.0 0.00 0.00 0.00 86 1027.4
20181113185136 59 294 1.0 3.0 0.00 0.00 0.00 86 1027.2
20181113184636 59 290 1.0 3.0 0.00 0.00 0.00 86 1027.5
20181113184136 59 290 1.0 2.0 0.00 0.00 0.00 86 1027.4
20181113183637 59 291 1.0 3.0 0.00 0.00 0.00 86 1027.5
20181113183136 59 296 0.0 2.0 0.00 0.00 0.00 86 1027.5
20181113182637 60 323 1.0 5.0 0.00 0.00 0.00 84 1027.5